Latest Weather Observations for Miles

IDQ60801

Issued at 6:02 pm EST Wednesday 28 September 2016 (issued every 30 minutes, with the page automatically refreshed every 10 minutes)

About weather observations | Map of weather stations | Latest weather observations for QLD | Other Formats
Station Details ID: 042112 Name: MILES CONSTANCE STREET Lat: -26.66 Lon: 150.18 Height: 304.8 m
Data from the previous 72 hours. | See also: Recent months at Miles
Date/Time
EST
Temp
°C
App
Temp
°C
Dew
Point
°C
Rel
Hum
%
Delta-T
°C
Wind Press
QNH
hPa
Press
MSL
hPa
Rain since
9am
mm
Dir  Spd
km/h
Gust
km/h
Spd
kts
Gust
kts
28/06:00pm 22.8 21.0 7.0 36 8.3 ESE 6 9 3 5 1011.5 1010.9 0.0
28/05:30pm 23.6 21.8 7.1 34 8.7 SSW 6 9 3 5 1011.7 - 0.0
28/05:00pm 24.3 24.5 10.6 42 7.7 CALM 0 0 0 0 1011.5 - 0.0
28/04:30pm 25.2 23.3 4.9 27 10.4 W 4 7 2 4 1011.5 - 0.0
28/04:00pm 26.0 24.6 5.7 27 10.6 SW 2 7 1 4 1011.3 - 0.0
28/03:30pm 24.9 22.5 4.1 26 10.5 ENE 6 9 3 5 1011.1 - 0.0
28/03:00pm 26.1 23.8 5.9 27 10.6 N 7 11 4 6 1011.3 1010.7 0.0
28/02:30pm 25.5 22.8 3.9 24 10.9 SW 7 13 4 7 1011.7 - 0.0
28/02:00pm 25.2 21.7 3.3 24 10.9 W 11 19 6 10 1012.3 - 0.0
28/01:30pm 24.7 21.7 4.0 26 10.4 W 9 13 5 7 1013.0 - 0.0
28/01:00pm 24.7 21.2 3.7 25 10.5 WNW 11 19 6 10 1013.4 - 0.0
28/12:30pm 24.9 21.6 4.6 27 10.3 WSW 11 20 6 11 1014.1 - 0.0
28/12:00pm 24.7 22.2 4.9 28 10.1 WSW 7 15 4 8 1014.6 1014.0 0.0
28/11:30am 24.2 20.6 4.9 28 9.8 SSW 13 20 7 11 1014.9 - 0.0
28/11:00am 24.5 21.3 5.1 28 9.9 SW 11 17 6 9 1015.3 - 0.0
28/10:30am 23.6 20.4 5.1 30 9.4 SW 11 19 6 10 1015.6 - 0.0
28/10:00am 23.1 20.5 6.3 33 8.7 W 9 13 5 7 1015.9 - 0.0
28/09:30am 21.9 19.3 6.3 36 8.0 WSW 9 15 5 8 1016.3 - 0.0
28/09:00am 20.4 17.9 6.5 40 7.1 WSW 9 15 5 8 1016.3 1015.8 0.0
28/08:30am 19.0 16.6 7.1 46 6.1 W 9 13 5 7 1016.5 - 0.0
28/08:00am 17.7 15.7 7.3 50 5.3 W 7 15 4 8 1016.4 - 0.0
28/07:30am 15.2 13.7 8.4 64 3.5 N 6 9 3 5 1016.0 - 0.0
28/07:00am 13.1 11.2 6.8 65 3.1 N 6 11 3 6 1015.4 - 0.0
28/06:30am 10.7 9.1 8.1 84 1.3 N 6 7 3 4 1015.3 - 0.0
28/06:00am 9.0 7.0 7.1 88 0.9 N 7 9 4 5 1015.1 1014.5 0.0
28/05:30am 9.4 7.6 7.1 85 1.1 NNE 6 7 3 4 1014.9 - 0.0
28/05:00am 10.7 9.0 6.0 73 2.2 NNE 4 9 2 5 1014.3 - 0.0
28/04:30am 10.1 8.2 6.5 78 1.7 WNW 6 11 3 6 1014.1 - 0.0
28/04:00am 9.8 8.4 7.1 83 1.3 SE 4 9 2 5 1013.6 - 0.0
28/03:30am 8.8 8.3 7.8 93 0.5 CALM 0 0 0 0 1013.5 - 0.0
28/03:00am 8.9 8.5 8.1 95 0.4 CALM 0 0 0 0 1013.4 1012.9 0.0
28/02:30am 9.0 8.6 8.4 96 0.3 CALM 0 0 0 0 1013.7 - 0.0
28/02:00am 9.1 8.7 8.3 95 0.4 CALM 0 0 0 0 1014.0 - 0.0
28/01:30am 9.3 7.8 8.3 93 0.5 N 6 7 3 4 1014.2 - 0.0
28/01:00am 9.8 8.7 8.6 92 0.6 N 4 6 2 3 1014.6 - 0.0
28/12:30am 10.0 8.6 8.8 92 0.6 N 6 7 3 4 1015.1 - 0.0
28/12:00am 10.4 8.8 8.6 89 0.9 N 7 9 4 5 1015.3 1014.7 0.0
 
Date/Time
EST
Temp
°C
App
Temp
°C
Dew
Point
°C
Rel
Hum
%
Delta-T
°C
Wind Press
QNH
hPa
Press
MSL
hPa
Rain since
9am
mm
Dir  Spd
km/h
Gust
km/h
Spd
kts
Gust
kts
27/11:30pm 10.8 9.4 8.8 87 1.0 N 6 9 3 5 1015.4 - 0.0
27/11:00pm 10.7 9.2 9.3 91 0.7 N 7 9 4 5 1015.8 - 0.0
27/10:30pm 11.1 9.9 9.7 91 0.7 N 6 7 3 4 1015.8 - 0.0
27/10:00pm 11.6 10.4 9.7 88 1.0 N 6 7 3 4 1016.0 - 0.0
27/09:30pm 11.6 11.7 10.1 90 0.8 CALM 0 0 0 0 1016.0 - 0.0
27/09:00pm 12.6 12.7 10.1 85 1.3 CALM 0 0 0 0 1016.0 1015.5 0.0
27/08:30pm 12.8 12.8 9.9 82 1.5 CALM 0 0 0 0 1016.1 - 0.0
27/08:00pm 13.4 13.5 10.0 80 1.8 CALM 0 0 0 0 1016.1 - 0.0
27/07:30pm 14.2 14.1 9.4 73 2.5 CALM 0 0 0 0 1016.0 - 0.0
27/07:00pm 15.1 14.6 8.0 62 3.6 CALM 0 0 0 0 1015.9 - 0.0
27/06:30pm 16.5 16.0 7.9 57 4.4 CALM 0 0 0 0 1015.7 - 0.0
27/06:00pm 18.5 18.4 9.3 55 4.9 CALM 0 0 0 0 1015.3 1014.7 0.0
27/05:30pm 20.3 18.4 6.6 41 7.0 WSW 6 9 3 5 1015.1 - 0.0
27/05:00pm 21.2 18.6 4.1 32 8.4 SW 7 11 4 6 1014.8 - 0.0
27/04:30pm 21.5 18.9 4.0 31 8.6 SW 7 11 4 6 1014.7 - 0.0
27/04:00pm 21.9 18.5 2.1 27 9.4 SW 9 19 5 10 1014.4 - 0.0
27/03:30pm 22.4 18.6 1.7 25 9.8 S 11 15 6 8 1014.5 - 0.0
27/03:00pm 22.4 18.7 -0.2 22 10.3 WSW 9 15 5 8 1014.9 1014.3 0.0
27/02:30pm 22.6 18.9 2.4 26 9.7 SSW 11 15 6 8 1014.9 - 0.0
27/02:00pm 21.3 17.7 3.0 30 8.8 WSW 11 19 6 10 1015.6 - 0.0
27/01:30pm 21.2 17.5 2.5 29 8.9 W 11 20 6 11 1016.0 - 0.0
27/01:00pm 20.6 17.0 3.1 31 8.4 SSW 11 17 6 9 1016.1 - 0.0
27/12:30pm 20.2 17.5 5.4 38 7.4 SSW 9 17 5 9 1016.8 - 0.0
27/12:00pm 19.5 16.2 4.3 36 7.4 SW 11 19 6 10 1017.4 1016.8 0.0
27/11:30am 19.4 16.9 4.7 38 7.2 S 7 11 4 6 1017.7 - 0.0
27/11:00am 19.0 16.6 5.2 40 6.8 SW 7 15 4 8 1018.1 - 0.0
27/10:30am 18.3 16.0 5.6 43 6.3 SSW 7 15 4 8 1018.1 - 0.0
27/10:00am 17.4 14.1 4.8 43 6.1 S 11 20 6 11 1018.6 - 0.0
27/09:30am 17.1 14.0 5.7 47 5.6 S 11 17 6 9 1018.8 - 0.0
27/09:00am 17.1 13.7 5.7 47 5.6 S 13 19 7 10 1018.8 1018.3 0.0
27/08:30am 16.7 13.8 6.4 50 5.1 S 11 17 6 9 1018.7 - 0.0
27/08:00am 15.6 13.4 7.7 59 4.0 S 9 17 5 9 1018.5 - 0.0
27/07:30am 14.8 12.6 7.9 63 3.5 S 9 13 5 7 1018.4 - 0.0
27/07:00am 13.3 12.2 9.8 79 1.8 SSW 6 9 3 5 1018.0 - 0.0
27/06:30am 11.0 11.1 10.2 95 0.4 CALM 0 0 0 0 1017.6 - 0.0
27/06:00am 10.3 10.2 9.5 95 0.4 CALM 0 0 0 0 1017.0 1016.5 0.0
27/05:30am 10.5 10.5 9.7 95 0.4 CALM 0 0 0 0 1016.8 - 0.0
27/05:00am 11.3 11.3 9.7 90 0.8 CALM 0 0 0 0 1016.2 - 0.0
27/04:30am 11.7 11.6 9.6 87 1.1 CALM 0 0 0 0 1015.8 - 0.0
27/04:00am 12.6 12.6 9.9 83 1.4 CALM 0 0 0 0 1015.4 - 0.0
27/03:30am 13.2 11.9 9.1 76 2.1 S 6 9 3 5 1015.2 - 0.0
27/03:00am 13.4 12.1 9.3 76 2.1 SSW 6 7 3 4 1015.4 1014.8 0.0
27/02:30am 13.9 12.6 9.3 74 2.4 SW 6 9 3 5 1015.6 - 0.0
27/02:00am 14.1 12.6 9.1 72 2.6 SSW 7 9 4 5 1015.6 - 0.0
27/01:30am 14.1 12.8 9.3 73 2.5 S 6 9 3 5 1015.6 - 0.0
27/01:00am 14.0 13.9 9.6 75 2.3 CALM 0 0 0 0 1016.0 - 0.0
27/12:30am 14.0 14.2 10.6 80 1.8 CALM 0 0 0 0 1016.2 - 0.0
27/12:00am 14.2 14.1 9.6 74 2.4 CALM 0 6 0 3 1016.3 1015.8 0.0
 
Date/Time
EST
Temp
°C
App
Temp
°C
Dew
Point
°C
Rel
Hum
%
Delta-T
°C
Wind Press
QNH
hPa
Press
MSL
hPa
Rain since
9am
mm
Dir  Spd
km/h
Gust
km/h
Spd
kts
Gust
kts
26/11:30pm 14.2 13.1 9.8 75 2.3 SSW 6 6 3 3 1016.4 - 0.0
26/11:00pm 15.0 13.6 9.0 67 3.1 SSW 6 9 3 5 1016.4 - 0.0
26/10:30pm 15.5 14.0 9.0 65 3.4 SSW 7 9 4 5 1016.7 - 0.0
26/10:00pm 16.0 14.4 8.7 62 3.8 SSW 7 11 4 6 1016.3 - 0.0
26/09:30pm 16.6 14.9 8.3 58 4.3 S 7 11 4 6 1015.9 - 0.0
26/09:00pm 17.3 15.1 7.7 53 4.9 S 9 13 5 7 1016.0 1015.5 0.0
26/08:30pm 17.9 14.5 7.6 51 5.3 SSW 15 24 8 13 1016.1 - 0.0
26/08:00pm 18.1 15.3 7.1 48 5.6 SW 11 19 6 10 1015.8 - 0.0
26/07:30pm 18.1 15.3 7.1 48 5.6 SW 11 15 6 8 1015.2 - 0.0
26/07:00pm 17.8 15.6 7.7 51 5.2 SW 9 13 5 7 1014.3 - 0.0
26/06:30pm 17.9 16.7 9.7 58 4.4 WSW 6 9 3 5 1014.1 - 0.0
26/06:00pm 19.6 17.6 7.2 44 6.4 WSW 7 11 4 6 1013.4 1012.9 0.0
26/05:30pm 21.0 18.4 6.1 38 7.6 WSW 9 15 5 8 1013.2 - 0.0
26/05:00pm 22.0 19.2 7.1 38 7.8 SW 11 19 6 10 1013.1 - 0.0
26/04:30pm 22.0 19.0 6.0 35 8.2 S 11 19 6 10 1013.0 - 0.0
26/04:00pm 22.1 18.0 6.4 36 8.1 SSW 17 26 9 14 1013.0 - 0.0
26/03:30pm 22.9 19.7 6.8 35 8.4 SSW 13 26 7 14 1012.8 - 0.0
26/03:00pm 22.4 18.6 5.8 34 8.5 WSW 15 26 8 14 1013.1 1012.6 0.0
26/02:30pm 22.4 18.9 5.5 33 8.6 SW 13 24 7 13 1013.2 - 0.0
26/02:00pm 21.7 17.6 4.6 32 8.5 SSW 15 24 8 13 1013.3 - 0.0
26/01:30pm 21.5 17.9 5.2 34 8.2 SSW 13 24 7 13 1014.0 - 0.0
26/01:00pm 21.5 17.1 4.9 33 8.3 WSW 17 26 9 14 1014.3 - 0.0
26/12:30pm 20.8 17.7 7.4 42 7.0 S 13 19 7 10 1014.5 - 0.0
26/12:00pm 20.6 18.2 7.1 41 7.0 SSW 9 20 5 11 1015.1 1014.5 0.0
26/11:30am 20.0 17.3 7.2 43 6.6 SW 11 20 6 11 1015.7 - 0.0
26/11:00am 19.5 15.3 7.3 45 6.3 S 19 26 10 14 1016.4 - 0.0
26/10:30am 19.3 15.7 8.5 49 5.7 S 17 24 9 13 1016.6 - 0.0
26/10:00am 18.7 14.9 7.7 48 5.7 SW 17 28 9 15 1017.0 - 0.0
26/09:30am 18.2 15.2 9.1 55 4.8 S 15 20 8 11 1017.0 - 0.0
26/09:00am 17.6 14.9 10.2 62 4.0 SSE 15 22 8 12 1017.0 1016.5 0.2
26/08:30am 16.4 14.2 10.7 69 3.1 S 13 19 7 10 1016.9 - 0.2
26/08:00am 15.3 13.1 10.8 74 2.4 SSE 13 17 7 9 1016.7 - 0.2
26/07:30am 13.9 11.9 10.3 79 1.9 S 11 20 6 11 1016.5 - 0.2
26/07:00am 12.1 10.8 10.0 87 1.1 SSW 7 11 4 6 1016.1 - 0.2
26/06:30am 9.7 9.6 9.3 97 0.2 CALM 0 0 0 0 1015.6 - 0.2
26/06:00am 8.5 8.1 8.3 99 0.1 CALM 0 0 0 0 1015.3 1014.7 0.2
26/05:30am 8.8 8.4 8.2 96 0.3 CALM 0 0 0 0 1014.9 - 0.2
26/05:00am 8.8 8.4 8.4 97 0.2 CALM 0 0 0 0 1014.6 - 0.2
26/04:30am 9.0 8.7 8.6 97 0.2 CALM 0 0 0 0 1014.4 - 0.2
26/04:00am 9.1 8.8 8.5 96 0.3 CALM 0 0 0 0 1014.2 - 0.2
26/03:30am 9.6 9.3 8.6 93 0.5 CALM 0 0 0 0 1013.6 - 0.2
26/03:00am 9.9 9.7 8.9 93 0.5 CALM 0 0 0 0 1013.6 1013.1 0.2
26/02:30am 10.2 9.7 9.2 93 0.5 S 2 6 1 3 1013.7 - 0.2
26/02:00am 9.9 9.8 9.3 96 0.3 CALM 0 0 0 0 1013.8 - 0.2
26/01:30am 10.2 10.1 9.4 95 0.4 CALM 0 0 0 0 1014.0 - 0.2
26/01:00am 10.6 10.5 9.6 93 0.5 CALM 0 0 0 0 1014.2 - 0.2
26/12:30am 10.9 10.9 9.9 93 0.5 CALM 0 0 0 0 1014.3 - 0.2
26/12:00am 11.2 11.2 9.8 91 0.7 CALM 0 0 0 0 1014.3 1013.7 0.2
 
Date/Time
EST
Temp
°C
App
Temp
°C
Dew
Point
°C
Rel
Hum
%
Delta-T
°C
Wind Press
QNH
hPa
Press
MSL
hPa
Rain since
9am
mm
Dir  Spd
km/h
Gust
km/h
Spd
kts
Gust
kts
25/11:30pm 11.6 11.6 9.7 88 1.0 CALM 0 0 0 0 1014.4 - 0.2
25/11:00pm 12.3 12.2 9.4 82 1.5 CALM 0 0 0 0 1014.4 - 0.2
25/10:30pm 12.7 12.7 9.8 82 1.5 CALM 0 0 0 0 1014.4 - 0.2
25/10:00pm 13.6 13.7 10.2 80 1.8 CALM 0 0 0 0 1014.4 - 0.2
25/09:30pm 14.9 14.8 9.6 70 2.8 CALM 0 0 0 0 1014.4 - 0.2
25/09:00pm 16.5 14.7 7.2 54 4.7 S 6 7 3 4 1014.2 1013.6 0.2
25/08:30pm 17.1 15.0 6.5 49 5.3 SW 7 11 4 6 1014.1 - 0.2
25/08:00pm 17.6 15.6 6.9 49 5.4 SW 7 9 4 5 1013.8 - 0.2
25/07:30pm 18.5 15.7 6.9 46 5.9 SSW 11 17 6 9 1013.5 - 0.2
25/07:00pm 19.2 16.8 6.9 44 6.3 SW 9 13 5 7 1013.1 - 0.2
25/06:30pm 20.0 17.0 6.2 40 7.0 SW 11 17 6 9 1012.4 - 0.2

Other Formats:

Comma delimited format used in spreadsheet applications
http://www.bom.gov.au/fwo/IDQ60801/IDQ60801.95529.axf

JavaScript Object Notation format (JSON) in row-major order
http://www.bom.gov.au/fwo/IDQ60801/IDQ60801.95529.json